createdAt,value
2019-03-03T00:02:02.417Z,9.73
2019-03-03T00:04:34.674Z,7.58
2019-03-03T00:07:05.954Z,9.18
2019-03-03T00:09:37.168Z,10.15
2019-03-03T00:12:09.344Z,9.75
2019-03-03T00:14:40.536Z,8.40
2019-03-03T00:17:11.764Z,8.63
2019-03-03T00:19:42.912Z,8.48
2019-03-03T00:22:14.164Z,7.78
2019-03-03T00:24:45.353Z,7.37
2019-03-03T00:27:16.711Z,8.18
2019-03-03T00:29:47.929Z,8.70
2019-03-03T00:32:19.084Z,8.23
2019-03-03T00:34:50.300Z,8.70
2019-03-03T00:37:29.231Z,8.90
2019-03-03T00:40:15.154Z,8.10
2019-03-03T00:42:54.303Z,7.67
2019-03-03T00:45:47.266Z,8.08
2019-03-03T00:48:46.564Z,8.13
2019-03-03T00:51:39.522Z,8.18
2019-03-03T00:54:37.786Z,8.63
2019-03-03T00:57:26.867Z,9.50
2019-03-03T01:00:17.058Z,9.28
2019-03-03T01:03:07.251Z,8.73
2019-03-03T01:05:51.077Z,6.90
2019-03-03T01:08:44.356Z,9.28
2019-03-03T01:11:32.192Z,8.95
2019-03-03T01:14:14.806Z,9.08
2019-03-03T01:17:08.990Z,9.43
2019-03-03T01:19:57.016Z,11.95
2019-03-03T01:22:50.193Z,9.98
2019-03-03T01:25:21.573Z,9.28
2019-03-03T01:27:52.757Z,11.28
2019-03-03T01:30:24.037Z,9.13
2019-03-03T01:32:55.389Z,8.43
2019-03-03T01:35:26.711Z,10.13
2019-03-03T01:37:57.983Z,10.30
2019-03-03T01:40:29.190Z,8.78
2019-03-03T01:43:00.371Z,9.68
2019-03-03T01:45:31.549Z,11.10
2019-03-03T01:48:02.905Z,8.30
2019-03-03T01:50:34.325Z,8.58
2019-03-03T01:53:05.536Z,9.33
2019-03-03T01:55:36.721Z,9.23
2019-03-03T01:58:07.944Z,8.68
2019-03-03T02:00:39.321Z,10.08
2019-03-03T02:03:10.459Z,10.88
2019-03-03T02:05:41.628Z,9.73
2019-03-03T02:08:12.993Z,8.08
2019-03-03T02:10:44.444Z,8.58
2019-03-03T02:13:16.000Z,10.85
2019-03-03T02:15:47.209Z,9.78
2019-03-03T02:18:18.388Z,10.93
2019-03-03T02:20:49.621Z,10.15
2019-03-03T02:23:20.745Z,8.88
2019-03-03T02:25:51.938Z,10.23
2019-03-03T02:28:23.125Z,10.98
2019-03-03T02:30:54.473Z,10.32
2019-03-03T02:33:25.558Z,8.58
2019-03-03T02:35:56.884Z,10.78
2019-03-03T02:38:28.274Z,11.03
2019-03-03T02:40:59.491Z,9.68
2019-03-03T02:43:37.544Z,11.40
2019-03-03T02:46:08.761Z,10.05
2019-03-03T02:48:40.181Z,10.30
2019-03-03T02:51:11.350Z,9.25
2019-03-03T02:53:42.506Z,10.05
2019-03-03T02:56:13.631Z,10.00
2019-03-03T02:58:44.757Z,9.43
2019-03-03T03:01:37.823Z,10.45
2019-03-03T03:04:09.060Z,9.93
2019-03-03T03:06:45.520Z,10.28
2019-03-03T03:09:25.637Z,9.33
2019-03-03T03:12:27.967Z,10.10
2019-03-03T03:15:18.158Z,8.78
2019-03-03T03:17:55.878Z,11.38
2019-03-03T03:20:46.049Z,8.68
2019-03-03T03:23:36.343Z,11.40
2019-03-03T03:26:26.535Z,11.10
2019-03-03T03:29:22.461Z,11.63
2019-03-03T03:32:11.225Z,11.63
2019-03-03T03:34:48.203Z,11.85
2019-03-03T03:37:53.345Z,11.70
2019-03-03T03:40:52.955Z,13.83
2019-03-03T03:43:41.712Z,11.38
2019-03-03T03:46:36.934Z,12.90
2019-03-03T03:49:39.096Z,12.55
2019-03-03T03:52:31.950Z,11.03
2019-03-03T03:55:14.259Z,11.35
2019-03-03T03:58:00.854Z,9.98
2019-03-03T04:01:09.286Z,13.03
2019-03-03T04:03:57.943Z,11.38
2019-03-03T04:06:35.267Z,11.22
2019-03-03T04:09:32.427Z,12.15
2019-03-03T04:12:13.255Z,13.85
2019-03-03T04:15:12.766Z,14.58
2019-03-03T04:18:01.421Z,14.75
2019-03-03T04:20:51.308Z,13.83
2019-03-03T04:23:40.272Z,16.23
2019-03-03T04:26:22.066Z,12.70
2019-03-03T04:29:27.410Z,13.00
2019-03-03T04:32:17.602Z,15.38
2019-03-03T04:35:04.106Z,13.62
2019-03-03T04:37:54.299Z,12.35
2019-03-03T04:40:56.372Z,13.28
2019-03-03T04:43:55.368Z,12.23
2019-03-03T04:46:47.198Z,12.65
2019-03-03T04:49:37.388Z,11.38
2019-03-03T04:52:33.621Z,12.28
2019-03-03T04:55:32.416Z,10.43
2019-03-03T04:58:19.022Z,9.80
2019-03-03T05:01:15.156Z,12.20
2019-03-03T05:04:11.284Z,12.25
2019-03-03T05:06:51.327Z,11.48
2019-03-03T05:09:53.715Z,11.88
2019-03-03T05:12:43.497Z,11.10
2019-03-03T05:15:34.923Z,10.10
2019-03-03T05:18:23.880Z,10.28
2019-03-03T05:20:55.169Z,11.73
2019-03-03T05:23:26.433Z,12.80
2019-03-03T05:25:57.630Z,11.63
2019-03-03T05:28:28.842Z,11.33
2019-03-03T05:31:00.177Z,12.13
2019-03-03T05:33:31.683Z,11.08
2019-03-03T05:36:02.870Z,10.38
2019-03-03T05:38:35.228Z,11.18
2019-03-03T05:41:06.441Z,12.18
2019-03-03T05:43:37.793Z,12.37
2019-03-03T05:46:08.980Z,12.13
2019-03-03T05:48:40.209Z,10.23
2019-03-03T05:51:11.356Z,11.95
2019-03-03T05:53:42.516Z,11.75
2019-03-03T05:56:13.825Z,12.60
2019-03-03T05:58:45.170Z,12.28
2019-03-03T06:01:16.469Z,12.18
2019-03-03T06:03:47.663Z,12.20
2019-03-03T06:06:18.826Z,12.18
2019-03-03T06:08:50.252Z,13.15
2019-03-03T06:11:21.396Z,12.37
2019-03-03T06:13:52.848Z,11.28
2019-03-03T06:16:24.197Z,10.88
2019-03-03T06:18:55.439Z,12.68
2019-03-03T06:21:26.584Z,13.43
2019-03-03T06:23:57.836Z,13.35
2019-03-03T06:26:29.032Z,11.45
2019-03-03T06:29:00.328Z,12.07
2019-03-03T06:31:32.679Z,12.43
2019-03-03T06:34:03.902Z,11.95
2019-03-03T06:36:35.458Z,11.40
2019-03-03T06:39:07.748Z,11.80
2019-03-03T06:41:38.927Z,12.25
2019-03-03T06:44:10.080Z,10.72
2019-03-03T06:46:41.366Z,10.60
2019-03-03T06:49:12.919Z,11.40
2019-03-03T06:51:45.876Z,11.90
2019-03-03T06:54:16.749Z,11.78
2019-03-03T06:56:59.320Z,12.65
2019-03-03T06:59:30.516Z,11.85
2019-03-03T07:02:01.706Z,12.58
2019-03-03T07:04:33.063Z,12.37
2019-03-03T07:07:04.269Z,12.40
2019-03-03T07:09:35.873Z,12.55
2019-03-03T07:12:06.898Z,12.63
2019-03-03T07:14:37.871Z,13.18
2019-03-03T07:17:08.713Z,12.90
2019-03-03T07:19:40.073Z,13.48
2019-03-03T07:22:11.183Z,12.40
2019-03-03T07:24:42.630Z,13.88
2019-03-03T07:27:13.641Z,11.48
2019-03-03T07:29:44.488Z,14.55
2019-03-03T07:32:15.304Z,12.43
2019-03-03T07:34:47.160Z,12.05
2019-03-03T07:37:19.017Z,10.80
2019-03-03T07:39:50.217Z,11.88
2019-03-03T07:42:21.364Z,12.78
2019-03-03T07:44:52.409Z,9.40
2019-03-03T07:47:23.345Z,12.85
2019-03-03T07:50:14.988Z,13.15
2019-03-03T07:52:46.170Z,12.15
2019-03-03T07:55:17.245Z,12.68
2019-03-03T07:57:48.144Z,12.50
2019-03-03T08:00:19.081Z,12.68
2019-03-03T08:02:49.960Z,12.98
2019-03-03T08:05:20.898Z,11.78
2019-03-03T08:07:51.828Z,13.15
2019-03-03T08:10:22.843Z,12.90
2019-03-03T08:12:53.666Z,13.15
2019-03-03T08:15:24.517Z,13.43
2019-03-03T08:17:55.341Z,11.40
2019-03-03T08:20:26.560Z,11.97
2019-03-03T08:22:57.964Z,12.68
2019-03-03T08:25:30.713Z,13.20
2019-03-03T08:28:01.524Z,13.05
2019-03-03T08:30:32.373Z,13.30
2019-03-03T08:33:03.279Z,13.03
2019-03-03T08:35:34.153Z,13.80
2019-03-03T08:38:04.981Z,14.43
2019-03-03T08:40:35.833Z,14.45
2019-03-03T08:43:40.969Z,13.98
2019-03-03T08:46:31.053Z,12.43
2019-03-03T08:49:20.982Z,14.58
2019-03-03T08:52:13.879Z,14.28
2019-03-03T08:55:03.679Z,13.95
2019-03-03T08:57:57.749Z,15.45
2019-03-03T09:01:04.233Z,14.78
2019-03-03T09:04:03.037Z,12.63
2019-03-03T09:07:01.945Z,15.38
2019-03-03T09:09:50.868Z,15.55
2019-03-03T09:12:43.973Z,14.30
2019-03-03T09:15:38.307Z,14.68
2019-03-03T09:18:37.251Z,14.87
2019-03-03T09:21:18.818Z,13.68
2019-03-03T09:24:11.188Z,14.58
2019-03-03T09:27:07.015Z,13.62
2019-03-03T09:29:55.574Z,13.53
2019-03-03T09:32:48.297Z,16.07
2019-03-03T09:35:30.499Z,13.00
2019-03-03T09:38:31.221Z,14.53
2019-03-03T09:41:15.128Z,15.18
2019-03-03T09:44:05.175Z,15.75
2019-03-03T09:46:54.961Z,16.97
2019-03-03T09:49:43.535Z,17.77
2019-03-03T09:52:21.804Z,16.30
2019-03-03T09:55:17.476Z,16.52
2019-03-03T09:58:07.150Z,17.45
2019-03-03T10:01:02.956Z,13.85
2019-03-03T10:03:52.665Z,15.38
2019-03-03T10:06:45.593Z,16.73
2019-03-03T10:09:48.113Z,17.10
2019-03-03T10:12:44.577Z,17.50
2019-03-03T10:15:21.705Z,17.60
2019-03-03T10:18:14.162Z,18.80
2019-03-03T10:21:10.151Z,17.75
2019-03-03T10:24:00.276Z,15.50
2019-03-03T10:26:38.642Z,17.90
2019-03-03T10:29:17.461Z,16.73
2019-03-03T10:32:02.922Z,18.17
2019-03-03T10:34:55.609Z,16.12
2019-03-03T10:37:32.741Z,16.25
2019-03-03T10:40:22.459Z,19.23
2019-03-03T10:43:12.484Z,16.37
2019-03-03T10:46:05.050Z,16.80
2019-03-03T10:48:48.825Z,17.85
2019-03-03T10:51:35.450Z,19.00
2019-03-03T10:54:11.898Z,19.82
2019-03-03T10:57:07.974Z,17.95
2019-03-03T10:59:56.930Z,17.45
2019-03-03T11:02:38.246Z,17.67
2019-03-03T11:05:46.127Z,15.72
2019-03-03T11:08:33.576Z,16.50
2019-03-03T11:11:26.403Z,16.30
2019-03-03T11:14:09.236Z,17.65
2019-03-03T11:17:01.920Z,17.52
2019-03-03T11:19:57.230Z,16.23
2019-03-03T11:22:46.968Z,19.50
2019-03-03T11:25:27.623Z,18.37
2019-03-03T11:28:23.359Z,17.55
2019-03-03T11:31:05.790Z,16.07
2019-03-03T11:34:14.878Z,18.77
2019-03-03T11:36:53.923Z,18.70
2019-03-03T11:39:46.943Z,21.10
2019-03-03T11:42:35.370Z,19.50
2019-03-03T11:45:20.093Z,21.70
2019-03-03T11:48:04.420Z,20.12
2019-03-03T11:50:55.813Z,20.25
2019-03-03T11:53:41.629Z,23.32
2019-03-03T11:56:21.723Z,23.60
2019-03-03T11:59:11.512Z,22.27
2019-03-03T12:02:19.758Z,21.95
2019-03-03T12:05:18.349Z,21.35
2019-03-03T12:08:02.409Z,22.93
2019-03-03T12:10:52.256Z,23.92
2019-03-03T12:13:40.776Z,23.10
2019-03-03T12:16:25.032Z,22.75
2019-03-03T12:19:15.843Z,21.68
2019-03-03T12:22:20.942Z,20.08
2019-03-03T12:25:11.187Z,18.15
2019-03-03T12:27:57.881Z,19.25
2019-03-03T12:30:50.846Z,19.73
2019-03-03T12:33:58.957Z,17.95
2019-03-03T12:37:06.805Z,16.52
2019-03-03T12:39:54.780Z,17.55
2019-03-03T12:42:47.269Z,16.02
2019-03-03T12:45:55.512Z,14.78
2019-03-03T12:48:47.891Z,16.02
2019-03-03T12:51:45.848Z,14.75
2019-03-03T12:54:39.238Z,14.85
2019-03-03T12:57:21.929Z,14.80
2019-03-03T13:00:11.839Z,14.47
2019-03-03T13:03:04.529Z,14.58
2019-03-03T13:05:54.205Z,14.33
2019-03-03T13:08:41.847Z,14.98
2019-03-03T13:11:46.714Z,15.72
2019-03-03T13:14:45.475Z,14.75
2019-03-03T13:17:48.486Z,15.55
2019-03-03T13:20:31.016Z,17.35
2019-03-03T13:23:09.504Z,16.50
2019-03-03T13:25:56.401Z,15.48
2019-03-03T13:28:40.577Z,15.40
2019-03-03T13:31:33.304Z,17.80
2019-03-03T13:34:25.919Z,16.50
2019-03-03T13:37:16.101Z,17.30
2019-03-03T13:40:04.562Z,18.00
2019-03-03T13:42:52.992Z,16.42
2019-03-03T13:45:24.236Z,16.32
2019-03-03T13:47:55.081Z,15.80
2019-03-03T13:50:26.669Z,16.93
2019-03-03T13:52:57.619Z,17.45
2019-03-03T13:55:28.842Z,16.25
2019-03-03T13:57:59.704Z,15.53
2019-03-03T14:00:30.806Z,15.70
2019-03-03T14:03:01.640Z,17.15
2019-03-03T14:05:32.454Z,17.92
2019-03-03T14:08:03.389Z,15.93
2019-03-03T14:10:34.195Z,16.97
2019-03-03T14:13:05.933Z,16.60
2019-03-03T14:15:36.856Z,15.55
2019-03-03T14:18:07.895Z,17.12
2019-03-03T14:20:38.707Z,17.73
2019-03-03T14:23:09.999Z,14.07
2019-03-03T14:25:40.797Z,16.10
2019-03-03T14:28:12.633Z,16.30
2019-03-03T14:30:44.133Z,17.73
2019-03-03T14:33:15.181Z,18.40
2019-03-03T14:35:45.988Z,18.70
2019-03-03T14:38:19.053Z,18.70
2019-03-03T14:40:49.876Z,19.02
2019-03-03T14:43:20.746Z,19.73
2019-03-03T14:45:52.553Z,18.42
2019-03-03T14:48:23.893Z,20.00
2019-03-03T14:50:55.098Z,21.80
2019-03-03T14:53:25.986Z,18.25
2019-03-03T14:55:56.834Z,19.50
2019-03-03T14:58:27.764Z,23.00
2019-03-03T15:00:59.073Z,21.73
2019-03-03T15:03:30.155Z,18.85
2019-03-03T15:06:00.948Z,19.77
2019-03-03T15:08:31.878Z,21.07
2019-03-03T15:11:03.181Z,21.90
2019-03-03T15:13:34.006Z,19.75
2019-03-03T15:16:05.146Z,19.87
2019-03-03T15:18:35.993Z,20.75
2019-03-03T15:21:06.924Z,20.62
2019-03-03T15:23:37.748Z,19.17
2019-03-03T15:26:09.131Z,20.50
2019-03-03T15:28:40.938Z,20.62
2019-03-03T15:31:11.832Z,23.07
2019-03-03T15:33:43.104Z,22.85
2019-03-03T15:36:14.221Z,20.68
2019-03-03T15:38:45.430Z,22.50
2019-03-03T15:41:17.636Z,19.67
2019-03-03T15:43:48.786Z,22.82
2019-03-03T15:46:19.824Z,18.20
2019-03-03T15:48:51.024Z,20.90
2019-03-03T15:51:22.276Z,19.07
2019-03-03T15:53:53.465Z,21.40
2019-03-03T15:56:24.641Z,20.75
2019-03-03T15:58:55.960Z,21.85
2019-03-03T16:01:27.884Z,19.55
2019-03-03T16:03:58.816Z,20.45
2019-03-03T16:06:29.657Z,22.67
2019-03-03T16:09:00.643Z,21.80
2019-03-03T16:11:32.460Z,21.75
2019-03-03T16:14:03.361Z,21.48
2019-03-03T16:16:34.281Z,23.70
2019-03-03T16:19:05.312Z,22.05
2019-03-03T16:21:37.120Z,20.92
2019-03-03T16:24:08.720Z,22.58
2019-03-03T16:26:39.781Z,21.95
2019-03-03T16:29:11.616Z,21.77
2019-03-03T16:31:42.585Z,22.35
2019-03-03T16:34:13.428Z,21.62
2019-03-03T16:36:44.242Z,22.15
2019-03-03T16:39:15.582Z,20.77
2019-03-03T16:41:47.049Z,22.65
2019-03-03T16:44:17.985Z,22.58
2019-03-03T16:46:49.962Z,22.30
2019-03-03T16:49:21.008Z,21.97
2019-03-03T16:51:53.279Z,22.90
2019-03-03T16:54:24.473Z,24.70
2019-03-03T16:56:55.876Z,25.45
2019-03-03T16:59:26.730Z,25.17
2019-03-03T17:01:58.656Z,20.35
2019-03-03T17:04:29.925Z,23.57
2019-03-03T17:07:01.732Z,24.52
2019-03-03T17:09:33.875Z,25.05
2019-03-03T17:12:05.147Z,23.12
2019-03-03T17:14:36.998Z,25.25
2019-03-03T17:17:09.818Z,26.57
2019-03-03T17:19:40.726Z,24.45
2019-03-03T17:22:11.892Z,24.63
2019-03-03T17:24:42.756Z,27.15
2019-03-03T17:27:13.600Z,29.23
2019-03-03T17:29:44.752Z,26.50
2019-03-03T17:32:15.682Z,26.25
2019-03-03T17:34:46.578Z,24.30
2019-03-03T17:37:17.882Z,28.23
2019-03-03T17:39:49.129Z,28.57
2019-03-03T17:42:20.009Z,27.77
2019-03-03T17:44:50.881Z,27.80
2019-03-03T17:47:22.059Z,26.82
2019-03-03T17:49:57.167Z,29.00
2019-03-03T17:52:28.446Z,25.77
2019-03-03T17:54:59.493Z,26.95
2019-03-03T17:57:30.657Z,29.48
2019-03-03T18:00:01.773Z,28.92
2019-03-03T18:02:33.694Z,27.22
2019-03-03T18:05:04.742Z,25.70
2019-03-03T18:07:35.836Z,26.33
2019-03-03T18:10:07.301Z,29.45
2019-03-03T18:12:38.174Z,30.17
2019-03-03T18:15:09.833Z,27.98
2019-03-03T18:17:41.115Z,29.72
2019-03-03T18:20:13.126Z,29.72
2019-03-03T18:22:44.730Z,26.62
2019-03-03T18:25:17.936Z,30.27
2019-03-03T18:27:48.893Z,28.62
2019-03-03T18:30:21.667Z,23.67
2019-03-03T18:32:52.724Z,26.82
2019-03-03T18:35:23.607Z,27.75
2019-03-03T18:37:54.404Z,32.05
2019-03-03T18:40:25.689Z,29.85
2019-03-03T18:42:56.764Z,28.32
2019-03-03T18:45:27.856Z,28.02
2019-03-03T18:47:58.730Z,28.05
2019-03-03T18:50:30.129Z,27.22
2019-03-03T18:53:01.046Z,24.32
2019-03-03T18:55:31.902Z,24.10
2019-03-03T18:58:02.813Z,25.12
2019-03-03T19:00:34.267Z,26.07
2019-03-03T19:03:06.685Z,22.40
2019-03-03T19:05:37.698Z,25.65
2019-03-03T19:08:08.897Z,26.27
2019-03-03T19:10:40.176Z,26.52
2019-03-03T19:13:11.148Z,26.37
2019-03-03T19:15:42.152Z,24.52
2019-03-03T19:18:12.987Z,23.27
2019-03-03T19:20:43.867Z,23.18
2019-03-03T19:23:14.903Z,22.50
2019-03-03T19:25:45.756Z,24.37
2019-03-03T19:28:17.008Z,22.15
2019-03-03T19:30:48.248Z,23.83
2019-03-03T19:33:23.010Z,23.02
2019-03-03T19:35:54.290Z,21.90
2019-03-03T19:38:25.331Z,23.30
2019-03-03T19:40:56.173Z,23.67
2019-03-03T19:43:28.143Z,23.25
2019-03-03T19:45:59.165Z,21.80
2019-03-03T19:48:30.021Z,20.90
2019-03-03T19:51:00.879Z,20.77
2019-03-03T19:53:32.139Z,21.30
2019-03-03T19:56:03.100Z,21.68
2019-03-03T19:58:34.289Z,22.70
2019-03-03T20:01:06.132Z,20.65
2019-03-03T20:03:37.070Z,20.32
2019-03-03T20:06:08.041Z,18.87
2019-03-03T20:08:38.930Z,19.15
2019-03-03T20:11:10.862Z,19.17
2019-03-03T20:13:41.736Z,18.90
2019-03-03T20:16:13.097Z,19.15
2019-03-03T20:18:44.013Z,20.23
2019-03-03T20:21:14.923Z,18.77
2019-03-03T20:23:45.739Z,17.92
2019-03-03T20:26:16.675Z,17.85
2019-03-03T20:28:47.606Z,18.50
2019-03-03T20:31:18.557Z,19.15
2019-03-03T20:33:49.394Z,16.70
2019-03-03T20:36:20.250Z,17.35
2019-03-03T20:38:51.077Z,17.07
2019-03-03T20:41:21.939Z,16.95
2019-03-03T20:43:52.784Z,16.60
2019-03-03T20:46:23.709Z,15.08
2019-03-03T20:48:54.521Z,16.27
2019-03-03T20:51:25.369Z,15.40
2019-03-03T20:53:56.181Z,15.70
2019-03-03T20:56:27.179Z,14.00
2019-03-03T20:58:58.913Z,14.58
2019-03-03T21:01:29.783Z,15.28
2019-03-03T21:04:02.272Z,16.17
2019-03-03T21:06:33.128Z,15.68
2019-03-03T21:09:05.540Z,14.35
2019-03-03T21:11:38.076Z,14.20
2019-03-03T21:14:09.014Z,14.03
2019-03-03T21:16:40.145Z,13.38
2019-03-03T21:19:11.129Z,13.75
2019-03-03T21:21:42.012Z,15.13
2019-03-03T21:24:12.813Z,13.75
2019-03-03T21:26:43.673Z,13.80
2019-03-03T21:29:14.572Z,12.65
2019-03-03T21:31:45.444Z,12.03
2019-03-03T21:34:16.297Z,12.45
2019-03-03T21:36:47.181Z,12.43
2019-03-03T21:39:18.060Z,10.70
2019-03-03T21:41:48.946Z,11.15
2019-03-03T21:44:19.793Z,11.20
2019-03-03T21:46:51.737Z,10.40
2019-03-03T21:49:23.192Z,9.98
2019-03-03T21:51:54.519Z,9.85
2019-03-03T21:54:25.628Z,9.15
2019-03-03T21:56:57.302Z,9.15
2019-03-03T21:59:28.465Z,9.03
2019-03-03T22:01:59.729Z,9.95
2019-03-03T22:04:30.550Z,8.95
2019-03-03T22:07:01.398Z,10.28
2019-03-03T22:09:34.489Z,10.25
2019-03-03T22:12:05.786Z,9.40
2019-03-03T22:14:37.161Z,10.03
2019-03-03T22:17:08.368Z,10.23
2019-03-03T22:19:39.513Z,8.35
2019-03-03T22:22:10.372Z,8.80
2019-03-03T22:24:41.511Z,8.13
2019-03-03T22:27:13.064Z,9.63
2019-03-03T22:29:44.199Z,9.75
2019-03-03T22:32:15.355Z,7.83
2019-03-03T22:34:46.565Z,8.13
2019-03-03T22:37:17.444Z,7.60
2019-03-03T22:39:48.320Z,6.78
2019-03-03T22:42:19.293Z,7.22
2019-03-03T22:44:50.144Z,6.92
2019-03-03T22:47:21.030Z,6.92
2019-03-03T22:49:52.369Z,6.65
2019-03-03T22:52:23.696Z,6.33
2019-03-03T22:54:54.889Z,6.58
2019-03-03T22:57:26.125Z,6.33
2019-03-03T22:59:56.931Z,5.53
2019-03-03T23:02:28.153Z,5.65
2019-03-03T23:05:17.045Z,6.10
2019-03-03T23:08:07.540Z,5.80
2019-03-03T23:10:43.381Z,5.67
2019-03-03T23:13:36.347Z,5.85
2019-03-03T23:17:06.294Z,4.62
2019-03-03T23:20:23.888Z,4.92
2019-03-03T23:23:26.642Z,4.97
2019-03-03T23:25:57.839Z,5.80
2019-03-03T23:28:28.877Z,6.00
2019-03-03T23:31:00.270Z,4.72
2019-03-03T23:33:31.365Z,5.62
2019-03-03T23:36:02.720Z,5.08
2019-03-03T23:38:34.027Z,4.90
2019-03-03T23:41:05.104Z,4.70
2019-03-03T23:43:35.936Z,4.47
2019-03-03T23:46:06.782Z,4.80
2019-03-03T23:48:37.611Z,4.35
2019-03-03T23:51:08.452Z,4.55
2019-03-03T23:53:39.285Z,4.00
2019-03-03T23:56:10.493Z,3.80
2019-03-03T23:58:41.333Z,4.35
